WetterOnline ( https://www.wetteronline.de )

Wetter aktuell Hanau

Aktuelles Wetter: Offenbach (119m)

6-stündlich | Neueste Meldungen
Ortszeit Temperatur Wetter
Mo, 26.09. 14:00 14.1° C bewölkt
Mo, 26.09. 8:00 7.4° C bewölkt
Mo, 26.09. 2:00 8.9° C wolkenlos
So, 25.09. 20:00 12.5° C bedeckt
So, 25.09. 14:00 13.8° C bedeckt
So, 25.09. 8:00 12.3° C leichter Regen
So, 25.09. 2:00 12.4° C leichter Regen
Sa, 24.09. 20:00 14.8° C bewölkt
Ortszeit Temperatur Wetter
Mo, 26.09. 15:00 14.6° C wolkig
Mo, 26.09. 14:50 14.6° C wolkig
Mo, 26.09. 14:40 14.7° C bedeckt
Mo, 26.09. 14:30 14.5° C bewölkt
Mo, 26.09. 14:20 14.5° C bewölkt
Mo, 26.09. 14:10 14.3° C bedeckt
Mo, 26.09. 14:00 14.1° C bewölkt
Mo, 26.09. 13:30 14.8° C wolkig
Mo, 26.09. 13:00 13.8° C bewölkt
Mo, 26.09. 12:30 13.4° C wolkig
Mo, 26.09. 12:00 13.6° C bewölkt
Ortszeit Relative Feuchte Sichtweite
Mo, 26.09. 14:00 62% 55 km
Mo, 26.09. 8:00 98% 7 km
Mo, 26.09. 2:00 97% 8 km
So, 25.09. 20:00 86% 35 km
So, 25.09. 14:00 83% 29 km
So, 25.09. 8:00 96% 4.2 km
So, 25.09. 2:00 97% 3.0 km
Sa, 24.09. 20:00 79% 40 km
Ortszeit Relative Feuchte Sichtweite
Mo, 26.09. 15:00 57% 65 km
Mo, 26.09. 14:50 57% -
Mo, 26.09. 14:40 60% -
Mo, 26.09. 14:30 62% 50 km
Mo, 26.09. 14:20 62% -
Mo, 26.09. 14:10 62% -
Mo, 26.09. 14:00 62% 55 km
Mo, 26.09. 13:30 61% 60 km
Mo, 26.09. 13:00 68% 45 km
Mo, 26.09. 12:30 72% 45 km
Mo, 26.09. 12:00 69% 60 km
Ortszeit Niederschlagsmenge Niederschlagsart
Mo, 26.09. 14:00 0.0 l/m2 in 6 Std. -
Mo, 26.09. 8:00 0.1 l/m2 in 12 Std. -
Mo, 26.09. 2:00 0.0 l/m2 in 6 Std. -
So, 25.09. 20:00 0.4 l/m2 in 12 Std. Sprühregen
So, 25.09. 14:00 0.4 l/m2 in 6 Std. Regen
So, 25.09. 8:00 5 l/m2 in 12 Std. Regen
So, 25.09. 2:00 3 l/m2 in 6 Std. Regen
Sa, 24.09. 20:00 0.1 l/m2 in 12 Std. Regen
Ortszeit Niederschlagsmenge Niederschlagsart
Mo, 26.09. 15:00 0.0 l/m2 in 1 Std. -
Mo, 26.09. 14:50 keine Meldung -
Mo, 26.09. 14:40 keine Meldung -
Mo, 26.09. 14:30 0.0 l/m2 in 1 Std. -
Mo, 26.09. 14:20 keine Meldung -
Mo, 26.09. 14:10 keine Meldung -
Mo, 26.09. 14:00 0.0 l/m2 in 1 Std. -
Mo, 26.09. 13:30 0.0 l/m2 in 1 Std. -
Mo, 26.09. 13:00 0.0 l/m2 in 1 Std. -
Mo, 26.09. 12:30 0.0 l/m2 in 1 Std. -
Mo, 26.09. 12:00 0.0 l/m2 in 1 Std. -
Ortszeit Stärke Spitze Richtung
km/h Bft. km/h Grad Sektor
Mo, 26.09. 14:00 18 3 40 240° SW
Mo, 26.09. 8:00 4 1 11 120° SO
Mo, 26.09. 2:00 4 1 14 240° SW
So, 25.09. 20:00 4 1 25 250° W
So, 25.09. 14:00 9 2 22 350° N
So, 25.09. 8:00 4 1 11 310° NW
So, 25.09. 2:00 0 0 29 - -
Sa, 24.09. 20:00 2 1 11 190° S
Ortszeit Stärke Spitze Richtung
km/h Bft. km/h Grad Sektor
Mo, 26.09. 15:00 14 3 32 230° SW
Mo, 26.09. 14:50 14 3 - 230° SW
Mo, 26.09. 14:40 13 3 - 230° SW
Mo, 26.09. 14:30 11 2 29 230° SW
Mo, 26.09. 14:20 11 2 - 230° SW
Mo, 26.09. 14:10 11 2 - 240° SW
Mo, 26.09. 14:00 18 3 40 240° SW
Mo, 26.09. 13:30 17 3 33 230° SW
Mo, 26.09. 13:00 11 2 29 230° SW
Mo, 26.09. 12:30 13 3 30 220° SW
Mo, 26.09. 12:00 13 3 24 210° SW
Ortszeit Untergrenze Bedeckung Gattung
total tief tief mittel hoch
Mo, 26.09. 14:00 1080 m 8/8 4/8 - - -
Mo, 26.09. 8:00 2700 m 7/8 7/8 - - -
Mo, 26.09. 2:00 - 0/8 0/8 - - -
So, 25.09. 20:00 1800 m 8/8 8/8 - - -
So, 25.09. 14:00 330 m 8/8 8/8 - - -
So, 25.09. 8:00 150 m 8/8 8/8 - - -
So, 25.09. 2:00 2100 m 8/8 8/8 - - -
Sa, 24.09. 20:00 1500 m 8/8 4/8 - - -
Ortszeit Bedeckungsgrad in Achtel und Wolkenuntergrenze
Mo, 26.09. 15:00 3(1500m) 8(3300m) 8(3900m)
Mo, 26.09. 14:50 3(1500m) 8(3300m) 8(3900m)
Mo, 26.09. 14:40 8
Mo, 26.09. 14:30 7(1440m) 8(3300m) 8(4200m)
Mo, 26.09. 14:20 7(1440m) 8(3300m) 8(4200m)
Mo, 26.09. 14:10 8
Mo, 26.09. 14:00 4(1080m) 8(3900m) 8(4500m)
Mo, 26.09. 13:30 3(1230m) 8(4500m) 8(6900m)
Mo, 26.09. 13:00 5(810m) 7(1290m) 7(4500m)
Mo, 26.09. 12:30 4(720m) 7(6600m) 7(8400m)
Mo, 26.09. 12:00 3(720m) 6(1380m) 7(1800m)
Ortszeit Luftdruck NN (hPa) Tendenz (hPa in 3 Std.)
Mo, 26.09. 14:00 1006 - 1,7
Mo, 26.09. 8:00 1009 - 1,9
Mo, 26.09. 2:00 1012 - 0,7
So, 25.09. 20:00 1013 0,0
So, 25.09. 14:00 1013 - 0,2
So, 25.09. 8:00 1013 + 0,1
So, 25.09. 2:00 1013 - 0,1
Sa, 24.09. 20:00 1012 + 0,2
Ortszeit Luftdruck NN (hPa) Tendenz (hPa in 3 Std.)
Mo, 26.09. 15:00 1005 - 2,2
Mo, 26.09. 14:50 1005 keine Meldung
Mo, 26.09. 14:40 1005 keine Meldung
Mo, 26.09. 14:30 1005 - 1,9
Mo, 26.09. 14:20 1005 keine Meldung
Mo, 26.09. 14:10 1005 keine Meldung
Mo, 26.09. 14:00 1006 - 1,7
Mo, 26.09. 13:30 1006 - 1,6
Mo, 26.09. 13:00 1006 - 1,6
Mo, 26.09. 12:30 1006 - 1,6
Mo, 26.09. 12:00 1007 - 1,2
Ortszeit Schneehöhe (cm)
Mo, 26.09. 14:00 0
Mo, 26.09. 8:00 0
Mo, 26.09. 2:00 0
So, 25.09. 20:00 0
So, 25.09. 14:00 0
So, 25.09. 8:00 0
So, 25.09. 2:00 0
Sa, 24.09. 20:00 0
Ortszeit Schneehöhe (cm)
Mo, 26.09. 15:00 0
Mo, 26.09. 14:50 0
Mo, 26.09. 14:40 0
Mo, 26.09. 14:30 0
Mo, 26.09. 14:20 0
Mo, 26.09. 14:10 0
Mo, 26.09. 14:00 0
Mo, 26.09. 13:30 0
Mo, 26.09. 13:00 0
Mo, 26.09. 12:30 0
Mo, 26.09. 12:00 0
Link zu dieser Seite / Seite empfehlen

Das Wetter in ...